sensor_id;sensor_type;location;lat;lon;timestamp;P1;durP1;ratioP1;P2;durP2;ratioP2
22005;SDS011;11167;46.988;15.470;2023-04-08T00:04:11;9.38;;;6.60;;
22005;SDS011;11167;46.988;15.470;2023-04-08T00:06:14;8.23;;;6.30;;
22005;SDS011;11167;46.988;15.470;2023-04-08T00:08:15;8.18;;;6.85;;
22005;SDS011;11167;46.988;15.470;2023-04-08T00:10:16;8.83;;;6.62;;
22005;SDS011;11167;46.988;15.470;2023-04-08T00:12:18;7.80;;;6.00;;
22005;SDS011;11167;46.988;15.470;2023-04-08T00:14:19;8.20;;;6.33;;
22005;SDS011;11167;46.988;15.470;2023-04-08T00:16:20;8.70;;;6.72;;
22005;SDS011;11167;46.988;15.470;2023-04-08T00:18:23;8.80;;;6.50;;
22005;SDS011;11167;46.988;15.470;2023-04-08T00:20:24;9.45;;;6.62;;
22005;SDS011;11167;46.988;15.470;2023-04-08T00:22:25;8.50;;;6.40;;
22005;SDS011;11167;46.988;15.470;2023-04-08T00:24:26;9.03;;;6.58;;
22005;SDS011;11167;46.988;15.470;2023-04-08T00:26:27;8.85;;;6.65;;
22005;SDS011;11167;46.988;15.470;2023-04-08T00:28:29;8.45;;;6.45;;
22005;SDS011;11167;46.988;15.470;2023-04-08T00:30:31;7.78;;;6.00;;
22005;SDS011;11167;46.988;15.470;2023-04-08T00:32:32;9.75;;;6.92;;
22005;SDS011;11167;46.988;15.470;2023-04-08T00:34:33;7.12;;;6.00;;
22005;SDS011;11167;46.988;15.470;2023-04-08T00:36:34;8.43;;;5.80;;
22005;SDS011;11167;46.988;15.470;2023-04-08T00:38:36;8.13;;;6.15;;
22005;SDS011;11167;46.988;15.470;2023-04-08T00:40:37;8.33;;;6.45;;
22005;SDS011;11167;46.988;15.470;2023-04-08T00:42:38;7.87;;;6.47;;
22005;SDS011;11167;46.988;15.470;2023-04-08T00:44:39;8.73;;;6.40;;
22005;SDS011;11167;46.988;15.470;2023-04-08T00:46:40;8.38;;;6.40;;
22005;SDS011;11167;46.988;15.470;2023-04-08T00:48:43;8.15;;;6.30;;
22005;SDS011;11167;46.988;15.470;2023-04-08T00:50:44;8.83;;;6.87;;
22005;SDS011;11167;46.988;15.470;2023-04-08T00:52:46;8.75;;;7.20;;
22005;SDS011;11167;46.988;15.470;2023-04-08T00:54:47;8.58;;;6.25;;
22005;SDS011;11167;46.988;15.470;2023-04-08T00:56:48;9.15;;;6.30;;
22005;SDS011;11167;46.988;15.470;2023-04-08T00:58:50;9.55;;;6.20;;
22005;SDS011;11167;46.988;15.470;2023-04-08T01:00:54;7.60;;;5.97;;
22005;SDS011;11167;46.988;15.470;2023-04-08T01:03:15;7.72;;;5.67;;
22005;SDS011;11167;46.988;15.470;2023-04-08T01:07:53;9.25;;;6.47;;
22005;SDS011;11167;46.988;15.470;2023-04-08T01:09:56;8.18;;;6.20;;
22005;SDS011;11167;46.988;15.470;2023-04-08T01:12:02;7.08;;;5.72;;
22005;SDS011;11167;46.988;15.470;2023-04-08T01:14:07;6.97;;;5.45;;
22005;SDS011;11167;46.988;15.470;2023-04-08T01:16:12;8.13;;;6.05;;
22005;SDS011;11167;46.988;15.470;2023-04-08T01:18:16;9.30;;;6.47;;
22005;SDS011;11167;46.988;15.470;2023-04-08T01:20:18;7.10;;;5.80;;
22005;SDS011;11167;46.988;15.470;2023-04-08T01:24:48;8.45;;;6.05;;
22005;SDS011;11167;46.988;15.470;2023-04-08T01:26:51;9.20;;;6.47;;
22005;SDS011;11167;46.988;15.470;2023-04-08T01:28:57;8.45;;;6.40;;
22005;SDS011;11167;46.988;15.470;2023-04-08T01:31:01;8.45;;;6.58;;
22005;SDS011;11167;46.988;15.470;2023-04-08T01:33:03;8.05;;;6.10;;
22005;SDS011;11167;46.988;15.470;2023-04-08T01:35:05;7.78;;;6.00;;
22005;SDS011;11167;46.988;15.470;2023-04-08T01:37:08;8.23;;;6.53;;
22005;SDS011;11167;46.988;15.470;2023-04-08T01:39:12;8.43;;;6.33;;
22005;SDS011;11167;46.988;15.470;2023-04-08T01:41:17;8.13;;;5.87;;
22005;SDS011;11167;46.988;15.470;2023-04-08T01:43:20;8.15;;;6.45;;
22005;SDS011;11167;46.988;15.470;2023-04-08T01:45:22;8.65;;;6.50;;
22005;SDS011;11167;46.988;15.470;2023-04-08T01:47:23;8.10;;;6.47;;
22005;SDS011;11167;46.988;15.470;2023-04-08T01:49:25;7.65;;;6.05;;
22005;SDS011;11167;46.988;15.470;2023-04-08T01:51:28;8.65;;;6.25;;
22005;SDS011;11167;46.988;15.470;2023-04-08T01:53:31;8.28;;;6.45;;
22005;SDS011;11167;46.988;15.470;2023-04-08T01:55:33;9.50;;;6.50;;
22005;SDS011;11167;46.988;15.470;2023-04-08T01:57:35;9.98;;;6.22;;
22005;SDS011;11167;46.988;15.470;2023-04-08T01:59:38;8.18;;;6.67;;
22005;SDS011;11167;46.988;15.470;2023-04-08T02:01:41;8.93;;;6.60;;
22005;SDS011;11167;46.988;15.470;2023-04-08T02:03:44;9.50;;;5.67;;
22005;SDS011;11167;46.988;15.470;2023-04-08T02:05:47;7.80;;;6.17;;
22005;SDS011;11167;46.988;15.470;2023-04-08T02:07:48;9.48;;;6.75;;
22005;SDS011;11167;46.988;15.470;2023-04-08T02:09:49;7.55;;;5.95;;
22005;SDS011;11167;46.988;15.470;2023-04-08T02:11:51;8.63;;;6.00;;
22005;SDS011;11167;46.988;15.470;2023-04-08T02:13:52;8.90;;;6.50;;
22005;SDS011;11167;46.988;15.470;2023-04-08T02:15:56;8.68;;;6.50;;
22005;SDS011;11167;46.988;15.470;2023-04-08T02:18:20;9.98;;;6.22;;
22005;SDS011;11167;46.988;15.470;2023-04-08T02:20:33;9.30;;;6.40;;
22005;SDS011;11167;46.988;15.470;2023-04-08T02:24:41;7.90;;;6.33;;
22005;SDS011;11167;46.988;15.470;2023-04-08T02:26:44;10.23;;;7.30;;
22005;SDS011;11167;46.988;15.470;2023-04-08T02:28:47;9.18;;;6.70;;
22005;SDS011;11167;46.988;15.470;2023-04-08T02:30:50;7.53;;;5.90;;
22005;SDS011;11167;46.988;15.470;2023-04-08T02:32:52;10.45;;;6.78;;
22005;SDS011;11167;46.988;15.470;2023-04-08T02:34:54;9.85;;;6.78;;
22005;SDS011;11167;46.988;15.470;2023-04-08T02:36:57;9.45;;;6.33;;
22005;SDS011;11167;46.988;15.470;2023-04-08T02:38:58;8.08;;;6.53;;
22005;SDS011;11167;46.988;15.470;2023-04-08T02:41:00;8.90;;;6.42;;
22005;SDS011;11167;46.988;15.470;2023-04-08T02:43:01;9.23;;;6.53;;
22005;SDS011;11167;46.988;15.470;2023-04-08T02:45:02;10.03;;;6.72;;
22005;SDS011;11167;46.988;15.470;2023-04-08T02:47:03;8.33;;;6.67;;
22005;SDS011;11167;46.988;15.470;2023-04-08T02:49:04;9.35;;;6.60;;
22005;SDS011;11167;46.988;15.470;2023-04-08T02:51:06;9.10;;;6.78;;
22005;SDS011;11167;46.988;15.470;2023-04-08T02:53:08;10.05;;;6.70;;
22005;SDS011;11167;46.988;15.470;2023-04-08T02:55:09;9.25;;;7.00;;
22005;SDS011;11167;46.988;15.470;2023-04-08T02:57:11;8.73;;;6.85;;
22005;SDS011;11167;46.988;15.470;2023-04-08T02:59:12;8.03;;;6.20;;
22005;SDS011;11167;46.988;15.470;2023-04-08T03:01:13;7.70;;;6.33;;
22005;SDS011;11167;46.988;15.470;2023-04-08T03:03:15;7.08;;;6.12;;
22005;SDS011;11167;46.988;15.470;2023-04-08T03:05:16;8.03;;;6.40;;
22005;SDS011;11167;46.988;15.470;2023-04-08T03:07:17;9.18;;;6.75;;
22005;SDS011;11167;46.988;15.470;2023-04-08T03:09:18;9.18;;;6.33;;
22005;SDS011;11167;46.988;15.470;2023-04-08T03:11:19;7.90;;;6.75;;
22005;SDS011;11167;46.988;15.470;2023-04-08T03:13:20;10.45;;;6.40;;
22005;SDS011;11167;46.988;15.470;2023-04-08T03:15:22;8.43;;;6.15;;
22005;SDS011;11167;46.988;15.470;2023-04-08T03:17:23;10.32;;;6.58;;
22005;SDS011;11167;46.988;15.470;2023-04-08T03:19:24;10.68;;;6.92;;
22005;SDS011;11167;46.988;15.470;2023-04-08T03:21:25;8.70;;;6.58;;
22005;SDS011;11167;46.988;15.470;2023-04-08T03:23:26;9.88;;;6.65;;
22005;SDS011;11167;46.988;15.470;2023-04-08T03:25:27;9.45;;;6.55;;
22005;SDS011;11167;46.988;15.470;2023-04-08T03:27:29;8.80;;;6.28;;
22005;SDS011;11167;46.988;15.470;2023-04-08T03:29:31;9.33;;;7.12;;
22005;SDS011;11167;46.988;15.470;2023-04-08T03:31:33;8.53;;;6.37;;
22005;SDS011;11167;46.988;15.470;2023-04-08T03:33:34;8.05;;;6.35;;
22005;SDS011;11167;46.988;15.470;2023-04-08T03:35:35;7.97;;;6.53;;
22005;SDS011;11167;46.988;15.470;2023-04-08T03:37:38;9.33;;;6.83;;
22005;SDS011;11167;46.988;15.470;2023-04-08T03:39:39;8.15;;;6.50;;
22005;SDS011;11167;46.988;15.470;2023-04-08T03:41:40;9.30;;;6.78;;
22005;SDS011;11167;46.988;15.470;2023-04-08T03:43:41;9.88;;;7.00;;
22005;SDS011;11167;46.988;15.470;2023-04-08T03:45:42;8.08;;;6.58;;
22005;SDS011;11167;46.988;15.470;2023-04-08T03:47:43;8.95;;;6.58;;
22005;SDS011;11167;46.988;15.470;2023-04-08T03:49:44;9.10;;;6.28;;
22005;SDS011;11167;46.988;15.470;2023-04-08T03:51:46;9.13;;;6.67;;
22005;SDS011;11167;46.988;15.470;2023-04-08T03:53:47;9.28;;;6.95;;
22005;SDS011;11167;46.988;15.470;2023-04-08T03:58:09;8.58;;;6.70;;
22005;SDS011;11167;46.988;15.470;2023-04-08T04:00:11;9.30;;;7.05;;
22005;SDS011;11167;46.988;15.470;2023-04-08T04:02:12;9.63;;;6.72;;
22005;SDS011;11167;46.988;15.470;2023-04-08T04:04:13;10.50;;;6.92;;
22005;SDS011;11167;46.988;15.470;2023-04-08T04:06:15;10.58;;;7.30;;
22005;SDS011;11167;46.988;15.470;2023-04-08T04:08:16;10.45;;;7.33;;
22005;SDS011;11167;46.988;15.470;2023-04-08T04:10:17;12.00;;;7.05;;
22005;SDS011;11167;46.988;15.470;2023-04-08T04:12:18;9.55;;;7.12;;
22005;SDS011;11167;46.988;15.470;2023-04-08T04:14:19;9.00;;;6.75;;
22005;SDS011;11167;46.988;15.470;2023-04-08T04:16:21;12.28;;;7.33;;
22005;SDS011;11167;46.988;15.470;2023-04-08T04:18:22;10.63;;;6.80;;
22005;SDS011;11167;46.988;15.470;2023-04-08T04:20:23;8.80;;;6.95;;
22005;SDS011;11167;46.988;15.470;2023-04-08T04:22:25;8.35;;;6.62;;
22005;SDS011;11167;46.988;15.470;2023-04-08T04:24:26;8.53;;;6.85;;
22005;SDS011;11167;46.988;15.470;2023-04-08T04:26:27;8.98;;;6.95;;
22005;SDS011;11167;46.988;15.470;2023-04-08T04:28:29;8.30;;;6.67;;
22005;SDS011;11167;46.988;15.470;2023-04-08T04:30:30;7.75;;;6.58;;
22005;SDS011;11167;46.988;15.470;2023-04-08T04:32:32;8.38;;;6.25;;
22005;SDS011;11167;46.988;15.470;2023-04-08T04:34:33;8.85;;;6.65;;
22005;SDS011;11167;46.988;15.470;2023-04-08T04:36:34;7.97;;;6.78;;
22005;SDS011;11167;46.988;15.470;2023-04-08T04:38:35;8.75;;;6.95;;
22005;SDS011;11167;46.988;15.470;2023-04-08T04:40:39;9.15;;;6.75;;
22005;SDS011;11167;46.988;15.470;2023-04-08T04:42:40;7.45;;;6.28;;
22005;SDS011;11167;46.988;15.470;2023-04-08T04:44:41;7.35;;;6.40;;
22005;SDS011;11167;46.988;15.470;2023-04-08T04:46:42;9.05;;;6.62;;
22005;SDS011;11167;46.988;15.470;2023-04-08T04:48:43;9.58;;;6.83;;
22005;SDS011;11167;46.988;15.470;2023-04-08T04:50:44;7.47;;;6.35;;
22005;SDS011;11167;46.988;15.470;2023-04-08T04:52:49;9.93;;;7.22;;
22005;SDS011;11167;46.988;15.470;2023-04-08T04:54:50;9.18;;;7.00;;
22005;SDS011;11167;46.988;15.470;2023-04-08T04:56:51;9.88;;;7.62;;
22005;SDS011;11167;46.988;15.470;2023-04-08T04:58:52;9.60;;;7.30;;
22005;SDS011;11167;46.988;15.470;2023-04-08T05:00:53;11.85;;;7.47;;
22005;SDS011;11167;46.988;15.470;2023-04-08T05:02:54;8.78;;;6.70;;
22005;SDS011;11167;46.988;15.470;2023-04-08T05:04:56;8.55;;;6.97;;
22005;SDS011;11167;46.988;15.470;2023-04-08T05:06:58;9.15;;;7.08;;
22005;SDS011;11167;46.988;15.470;2023-04-08T05:08:59;8.48;;;6.65;;
22005;SDS011;11167;46.988;15.470;2023-04-08T05:11:00;9.48;;;6.87;;
22005;SDS011;11167;46.988;15.470;2023-04-08T05:13:01;10.30;;;7.08;;
22005;SDS011;11167;46.988;15.470;2023-04-08T05:15:02;8.45;;;6.90;;
22005;SDS011;11167;46.988;15.470;2023-04-08T05:17:04;8.38;;;7.10;;
22005;SDS011;11167;46.988;15.470;2023-04-08T05:19:05;7.95;;;6.80;;
22005;SDS011;11167;46.988;15.470;2023-04-08T05:21:06;10.78;;;7.33;;
22005;SDS011;11167;46.988;15.470;2023-04-08T05:23:07;10.25;;;7.17;;
22005;SDS011;11167;46.988;15.470;2023-04-08T05:25:09;9.28;;;7.35;;
22005;SDS011;11167;46.988;15.470;2023-04-08T05:27:11;12.25;;;7.45;;
22005;SDS011;11167;46.988;15.470;2023-04-08T05:29:12;9.78;;;7.05;;
22005;SDS011;11167;46.988;15.470;2023-04-08T05:31:20;9.25;;;7.28;;
22005;SDS011;11167;46.988;15.470;2023-04-08T05:33:19;9.68;;;7.65;;
22005;SDS011;11167;46.988;15.470;2023-04-08T05:35:21;9.50;;;7.30;;
22005;SDS011;11167;46.988;15.470;2023-04-08T05:37:22;10.32;;;7.53;;
22005;SDS011;11167;46.988;15.470;2023-04-08T05:39:23;9.75;;;7.42;;
22005;SDS011;11167;46.988;15.470;2023-04-08T05:41:24;11.55;;;7.72;;
22005;SDS011;11167;46.988;15.470;2023-04-08T05:43:25;10.63;;;7.65;;
22005;SDS011;11167;46.988;15.470;2023-04-08T05:45:26;10.15;;;7.87;;
22005;SDS011;11167;46.988;15.470;2023-04-08T05:47:28;11.65;;;7.83;;
22005;SDS011;11167;46.988;15.470;2023-04-08T05:49:30;10.63;;;7.87;;
22005;SDS011;11167;46.988;15.470;2023-04-08T05:51:31;10.90;;;8.05;;
22005;SDS011;11167;46.988;15.470;2023-04-08T05:53:32;11.00;;;7.67;;
22005;SDS011;11167;46.988;15.470;2023-04-08T05:55:35;11.60;;;7.85;;
22005;SDS011;11167;46.988;15.470;2023-04-08T05:57:56;13.72;;;8.48;;
22005;SDS011;11167;46.988;15.470;2023-04-08T05:59:57;10.68;;;7.85;;
22005;SDS011;11167;46.988;15.470;2023-04-08T06:01:58;10.93;;;7.75;;
22005;SDS011;11167;46.988;15.470;2023-04-08T06:04:00;11.40;;;8.13;;
22005;SDS011;11167;46.988;15.470;2023-04-08T06:06:01;11.68;;;8.00;;
22005;SDS011;11167;46.988;15.470;2023-04-08T06:08:02;12.18;;;8.35;;
22005;SDS011;11167;46.988;15.470;2023-04-08T06:10:03;12.07;;;8.10;;
22005;SDS011;11167;46.988;15.470;2023-04-08T06:12:06;12.30;;;8.18;;
22005;SDS011;11167;46.988;15.470;2023-04-08T06:14:07;10.55;;;7.90;;
22005;SDS011;11167;46.988;15.470;2023-04-08T06:16:09;10.65;;;8.10;;
22005;SDS011;11167;46.988;15.470;2023-04-08T06:18:15;10.93;;;8.33;;
22005;SDS011;11167;46.988;15.470;2023-04-08T06:20:17;11.40;;;8.30;;
22005;SDS011;11167;46.988;15.470;2023-04-08T06:22:18;12.40;;;8.48;;
22005;SDS011;11167;46.988;15.470;2023-04-08T06:24:19;10.50;;;8.43;;
22005;SDS011;11167;46.988;15.470;2023-04-08T06:26:21;13.10;;;8.55;;
22005;SDS011;11167;46.988;15.470;2023-04-08T06:28:22;10.85;;;8.88;;
22005;SDS011;11167;46.988;15.470;2023-04-08T06:30:23;12.18;;;8.68;;
22005;SDS011;11167;46.988;15.470;2023-04-08T06:32:25;10.13;;;8.18;;
22005;SDS011;11167;46.988;15.470;2023-04-08T06:34:27;11.10;;;8.40;;
22005;SDS011;11167;46.988;15.470;2023-04-08T06:36:28;10.68;;;8.33;;
22005;SDS011;11167;46.988;15.470;2023-04-08T06:38:29;13.43;;;8.90;;
22005;SDS011;11167;46.988;15.470;2023-04-08T06:40:31;10.35;;;8.58;;
22005;SDS011;11167;46.988;15.470;2023-04-08T06:42:32;12.40;;;8.83;;
22005;SDS011;11167;46.988;15.470;2023-04-08T06:44:33;11.12;;;8.75;;
22005;SDS011;11167;46.988;15.470;2023-04-08T06:46:35;11.15;;;9.13;;
22005;SDS011;11167;46.988;15.470;2023-04-08T06:48:36;10.85;;;8.73;;
22005;SDS011;11167;46.988;15.470;2023-04-08T06:50:38;10.72;;;8.40;;
22005;SDS011;11167;46.988;15.470;2023-04-08T06:52:39;12.43;;;9.50;;
22005;SDS011;11167;46.988;15.470;2023-04-08T06:54:40;11.40;;;9.00;;
22005;SDS011;11167;46.988;15.470;2023-04-08T06:56:41;13.22;;;9.23;;
22005;SDS011;11167;46.988;15.470;2023-04-08T06:58:42;14.23;;;9.08;;
22005;SDS011;11167;46.988;15.470;2023-04-08T07:00:43;11.80;;;8.90;;
22005;SDS011;11167;46.988;15.470;2023-04-08T07:02:44;11.50;;;9.00;;
22005;SDS011;11167;46.988;15.470;2023-04-08T07:04:45;12.98;;;9.35;;
22005;SDS011;11167;46.988;15.470;2023-04-08T07:06:46;11.10;;;8.48;;
22005;SDS011;11167;46.988;15.470;2023-04-08T07:08:47;14.75;;;9.20;;
22005;SDS011;11167;46.988;15.470;2023-04-08T07:10:48;12.00;;;9.18;;
22005;SDS011;11167;46.988;15.470;2023-04-08T07:12:52;11.95;;;9.25;;
22005;SDS011;11167;46.988;15.470;2023-04-08T07:17:14;12.40;;;9.48;;
22005;SDS011;11167;46.988;15.470;2023-04-08T07:19:16;11.88;;;9.23;;
22005;SDS011;11167;46.988;15.470;2023-04-08T07:21:18;12.95;;;9.28;;
22005;SDS011;11167;46.988;15.470;2023-04-08T07:23:19;11.63;;;9.03;;
22005;SDS011;11167;46.988;15.470;2023-04-08T07:25:20;12.23;;;9.10;;
22005;SDS011;11167;46.988;15.470;2023-04-08T07:27:21;11.38;;;8.53;;
22005;SDS011;11167;46.988;15.470;2023-04-08T07:29:29;11.25;;;8.78;;
22005;SDS011;11167;46.988;15.470;2023-04-08T07:31:30;10.63;;;8.10;;
22005;SDS011;11167;46.988;15.470;2023-04-08T07:33:32;10.15;;;8.05;;
22005;SDS011;11167;46.988;15.470;2023-04-08T07:35:33;9.68;;;8.08;;
22005;SDS011;11167;46.988;15.470;2023-04-08T07:37:34;10.75;;;7.85;;
22005;SDS011;11167;46.988;15.470;2023-04-08T07:39:35;11.22;;;8.53;;
22005;SDS011;11167;46.988;15.470;2023-04-08T07:41:36;10.48;;;8.15;;
22005;SDS011;11167;46.988;15.470;2023-04-08T07:46:02;10.30;;;7.87;;
22005;SDS011;11167;46.988;15.470;2023-04-08T07:48:06;10.55;;;7.90;;
22005;SDS011;11167;46.988;15.470;2023-04-08T07:50:07;9.63;;;7.35;;
22005;SDS011;11167;46.988;15.470;2023-04-08T07:52:09;9.18;;;7.75;;
22005;SDS011;11167;46.988;15.470;2023-04-08T07:54:10;9.80;;;7.60;;
22005;SDS011;11167;46.988;15.470;2023-04-08T07:56:12;9.78;;;7.87;;
22005;SDS011;11167;46.988;15.470;2023-04-08T07:58:15;9.33;;;7.47;;
22005;SDS011;11167;46.988;15.470;2023-04-08T08:00:16;9.43;;;7.33;;
22005;SDS011;11167;46.988;15.470;2023-04-08T08:02:19;8.58;;;7.10;;
22005;SDS011;11167;46.988;15.470;2023-04-08T08:04:20;9.43;;;7.15;;
22005;SDS011;11167;46.988;15.470;2023-04-08T08:06:23;7.55;;;6.75;;
22005;SDS011;11167;46.988;15.470;2023-04-08T08:08:25;9.48;;;7.20;;
22005;SDS011;11167;46.988;15.470;2023-04-08T08:10:26;9.30;;;7.08;;
22005;SDS011;11167;46.988;15.470;2023-04-08T08:12:27;10.15;;;7.35;;
22005;SDS011;11167;46.988;15.470;2023-04-08T08:14:28;9.60;;;7.05;;
22005;SDS011;11167;46.988;15.470;2023-04-08T08:16:30;9.05;;;7.53;;
22005;SDS011;11167;46.988;15.470;2023-04-08T08:18:31;8.68;;;6.85;;
22005;SDS011;11167;46.988;15.470;2023-04-08T08:20:34;10.03;;;7.33;;
22005;SDS011;11167;46.988;15.470;2023-04-08T08:22:35;8.70;;;6.37;;
22005;SDS011;11167;46.988;15.470;2023-04-08T08:24:38;9.55;;;6.83;;
22005;SDS011;11167;46.988;15.470;2023-04-08T08:26:39;9.08;;;6.53;;
22005;SDS011;11167;46.988;15.470;2023-04-08T08:28:41;9.90;;;6.80;;
22005;SDS011;11167;46.988;15.470;2023-04-08T08:30:42;8.83;;;6.55;;
22005;SDS011;11167;46.988;15.470;2023-04-08T08:32:43;10.38;;;6.90;;
22005;SDS011;11167;46.988;15.470;2023-04-08T08:34:44;9.23;;;6.40;;
22005;SDS011;11167;46.988;15.470;2023-04-08T08:36:45;8.00;;;5.83;;
22005;SDS011;11167;46.988;15.470;2023-04-08T08:38:46;7.85;;;6.72;;
22005;SDS011;11167;46.988;15.470;2023-04-08T08:40:52;8.65;;;6.05;;
22005;SDS011;11167;46.988;15.470;2023-04-08T08:42:55;8.38;;;6.37;;
22005;SDS011;11167;46.988;15.470;2023-04-08T08:45:00;9.55;;;6.90;;
22005;SDS011;11167;46.988;15.470;2023-04-08T08:47:02;9.00;;;6.67;;
22005;SDS011;11167;46.988;15.470;2023-04-08T08:49:05;7.78;;;5.92;;
22005;SDS011;11167;46.988;15.470;2023-04-08T08:51:10;8.20;;;6.15;;
22005;SDS011;11167;46.988;15.470;2023-04-08T08:53:12;7.97;;;6.15;;
22005;SDS011;11167;46.988;15.470;2023-04-08T08:55:13;8.13;;;6.22;;
22005;SDS011;11167;46.988;15.470;2023-04-08T08:57:18;7.95;;;6.17;;
22005;SDS011;11167;46.988;15.470;2023-04-08T08:59:20;8.38;;;6.28;;
22005;SDS011;11167;46.988;15.470;2023-04-08T09:01:31;7.67;;;5.95;;
22005;SDS011;11167;46.988;15.470;2023-04-08T09:03:33;7.80;;;6.12;;
22005;SDS011;11167;46.988;15.470;2023-04-08T09:05:45;8.03;;;6.37;;
22005;SDS011;11167;46.988;15.470;2023-04-08T09:07:46;7.83;;;6.28;;
22005;SDS011;11167;46.988;15.470;2023-04-08T09:09:48;9.15;;;6.30;;
22005;SDS011;11167;46.988;15.470;2023-04-08T09:12:03;7.70;;;6.10;;
22005;SDS011;11167;46.988;15.470;2023-04-08T09:13:57;8.35;;;6.67;;
22005;SDS011;11167;46.988;15.470;2023-04-08T09:18:17;6.70;;;5.95;;
22005;SDS011;11167;46.988;15.470;2023-04-08T09:20:11;7.90;;;6.03;;
22005;SDS011;11167;46.988;15.470;2023-04-08T09:22:14;6.65;;;5.65;;
22005;SDS011;11167;46.988;15.470;2023-04-08T09:24:28;9.58;;;6.72;;
22005;SDS011;11167;46.988;15.470;2023-04-08T09:28:32;8.93;;;6.20;;
22005;SDS011;11167;46.988;15.470;2023-04-08T09:30:33;8.35;;;6.05;;
22005;SDS011;11167;46.988;15.470;2023-04-08T09:32:47;7.42;;;5.80;;
22005;SDS011;11167;46.988;15.470;2023-04-08T09:34:51;8.18;;;6.20;;
22005;SDS011;11167;46.988;15.470;2023-04-08T09:36:52;8.33;;;6.12;;
22005;SDS011;11167;46.988;15.470;2023-04-08T09:38:54;8.03;;;5.87;;
22005;SDS011;11167;46.988;15.470;2023-04-08T09:40:56;7.90;;;5.65;;
22005;SDS011;11167;46.988;15.470;2023-04-08T09:42:57;8.05;;;5.90;;
22005;SDS011;11167;46.988;15.470;2023-04-08T09:45:02;7.37;;;5.80;;
22005;SDS011;11167;46.988;15.470;2023-04-08T09:49:12;7.03;;;5.67;;
22005;SDS011;11167;46.988;15.470;2023-04-08T09:51:31;7.15;;;5.60;;
22005;SDS011;11167;46.988;15.470;2023-04-08T09:53:55;7.47;;;5.97;;
22005;SDS011;11167;46.988;15.470;2023-04-08T09:55:57;6.70;;;5.65;;
22005;SDS011;11167;46.988;15.470;2023-04-08T09:58:04;6.03;;;5.20;;
22005;SDS011;11167;46.988;15.470;2023-04-08T10:00:12;6.83;;;5.58;;
22005;SDS011;11167;46.988;15.470;2023-04-08T10:02:15;6.25;;;5.40;;
22005;SDS011;11167;46.988;15.470;2023-04-08T10:04:22;6.30;;;5.40;;
22005;SDS011;11167;46.988;15.470;2023-04-08T10:06:27;5.97;;;5.35;;
22005;SDS011;11167;46.988;15.470;2023-04-08T10:08:29;6.37;;;5.50;;
22005;SDS011;11167;46.988;15.470;2023-04-08T10:10:35;5.58;;;5.00;;
22005;SDS011;11167;46.988;15.470;2023-04-08T10:12:39;5.25;;;4.72;;
22005;SDS011;11167;46.988;15.470;2023-04-08T10:14:40;5.55;;;4.78;;
22005;SDS011;11167;46.988;15.470;2023-04-08T10:16:41;5.85;;;5.08;;
22005;SDS011;11167;46.988;15.470;2023-04-08T10:18:43;5.75;;;5.05;;
22005;SDS011;11167;46.988;15.470;2023-04-08T10:20:45;5.83;;;4.75;;
22005;SDS011;11167;46.988;15.470;2023-04-08T10:22:47;5.25;;;4.75;;
22005;SDS011;11167;46.988;15.470;2023-04-08T10:27:37;5.30;;;4.75;;
22005;SDS011;11167;46.988;15.470;2023-04-08T10:29:30;5.83;;;4.95;;
22005;SDS011;11167;46.988;15.470;2023-04-08T10:31:38;5.58;;;4.53;;
22005;SDS011;11167;46.988;15.470;2023-04-08T10:33:38;4.67;;;4.05;;
22005;SDS011;11167;46.988;15.470;2023-04-08T10:35:46;4.50;;;4.10;;
22005;SDS011;11167;46.988;15.470;2023-04-08T10:37:50;5.08;;;4.28;;
22005;SDS011;11167;46.988;15.470;2023-04-08T10:39:52;4.50;;;4.08;;
22005;SDS011;11167;46.988;15.470;2023-04-08T10:41:54;4.70;;;3.90;;
22005;SDS011;11167;46.988;15.470;2023-04-08T10:43:55;4.10;;;3.70;;
22005;SDS011;11167;46.988;15.470;2023-04-08T10:45:56;4.20;;;3.80;;
22005;SDS011;11167;46.988;15.470;2023-04-08T10:48:17;5.03;;;4.42;;
22005;SDS011;11167;46.988;15.470;2023-04-08T10:50:22;4.37;;;3.98;;
22005;SDS011;11167;46.988;15.470;2023-04-08T10:52:23;4.22;;;3.80;;
22005;SDS011;11167;46.988;15.470;2023-04-08T10:54:27;4.35;;;3.80;;
22005;SDS011;11167;46.988;15.470;2023-04-08T10:56:28;4.58;;;3.90;;
22005;SDS011;11167;46.988;15.470;2023-04-08T10:58:29;4.78;;;3.75;;
22005;SDS011;11167;46.988;15.470;2023-04-08T11:02:38;4.97;;;4.20;;
22005;SDS011;11167;46.988;15.470;2023-04-08T11:04:40;4.10;;;3.70;;
22005;SDS011;11167;46.988;15.470;2023-04-08T11:06:42;4.70;;;3.80;;
22005;SDS011;11167;46.988;15.470;2023-04-08T11:08:44;4.22;;;3.83;;
22005;SDS011;11167;46.988;15.470;2023-04-08T11:10:46;4.20;;;3.80;;
22005;SDS011;11167;46.988;15.470;2023-04-08T11:12:48;4.72;;;4.10;;
22005;SDS011;11167;46.988;15.470;2023-04-08T11:14:49;4.45;;;3.90;;
22005;SDS011;11167;46.988;15.470;2023-04-08T11:16:52;4.00;;;3.60;;
22005;SDS011;11167;46.988;15.470;2023-04-08T11:18:53;4.97;;;3.90;;
22005;SDS011;11167;46.988;15.470;2023-04-08T11:20:56;4.20;;;3.70;;
22005;SDS011;11167;46.988;15.470;2023-04-08T11:22:57;3.95;;;3.65;;
22005;SDS011;11167;46.988;15.470;2023-04-08T11:24:59;4.20;;;3.67;;
22005;SDS011;11167;46.988;15.470;2023-04-08T11:27:01;4.78;;;3.70;;
22005;SDS011;11167;46.988;15.470;2023-04-08T11:29:05;3.95;;;3.55;;
22005;SDS011;11167;46.988;15.470;2023-04-08T11:31:12;3.92;;;3.50;;
22005;SDS011;11167;46.988;15.470;2023-04-08T11:33:13;4.12;;;3.70;;
22005;SDS011;11167;46.988;15.470;2023-04-08T11:35:15;4.12;;;3.52;;
22005;SDS011;11167;46.988;15.470;2023-04-08T11:37:16;4.33;;;3.52;;
22005;SDS011;11167;46.988;15.470;2023-04-08T11:39:20;4.85;;;3.77;;
22005;SDS011;11167;46.988;15.470;2023-04-08T11:41:24;3.92;;;3.52;;
22005;SDS011;11167;46.988;15.470;2023-04-08T11:43:29;3.80;;;3.40;;
22005;SDS011;11167;46.988;15.470;2023-04-08T11:45:36;3.40;;;2.98;;
22005;SDS011;11167;46.988;15.470;2023-04-08T11:47:35;3.65;;;3.35;;
22005;SDS011;11167;46.988;15.470;2023-04-08T11:49:43;3.80;;;3.40;;
22005;SDS011;11167;46.988;15.470;2023-04-08T11:51:58;3.60;;;3.30;;
22005;SDS011;11167;46.988;15.470;2023-04-08T11:54:01;3.85;;;3.45;;
22005;SDS011;11167;46.988;15.470;2023-04-08T11:58:19;4.28;;;3.10;;
22005;SDS011;11167;46.988;15.470;2023-04-08T12:00:21;3.22;;;2.92;;
22005;SDS011;11167;46.988;15.470;2023-04-08T12:02:23;3.47;;;2.75;;
22005;SDS011;11167;46.988;15.470;2023-04-08T12:04:24;3.30;;;3.00;;
22005;SDS011;11167;46.988;15.470;2023-04-08T12:06:26;3.12;;;2.83;;
22005;SDS011;11167;46.988;15.470;2023-04-08T12:08:27;3.80;;;3.30;;
22005;SDS011;11167;46.988;15.470;2023-04-08T12:10:28;3.33;;;3.02;;
22005;SDS011;11167;46.988;15.470;2023-04-08T12:12:29;3.22;;;2.90;;
22005;SDS011;11167;46.988;15.470;2023-04-08T12:14:31;3.80;;;3.10;;
22005;SDS011;11167;46.988;15.470;2023-04-08T12:16:32;3.42;;;3.12;;
22005;SDS011;11167;46.988;15.470;2023-04-08T12:18:33;3.35;;;3.05;;
22005;SDS011;11167;46.988;15.470;2023-04-08T12:20:34;3.80;;;3.37;;
22005;SDS011;11167;46.988;15.470;2023-04-08T12:22:35;3.42;;;3.05;;
22005;SDS011;11167;46.988;15.470;2023-04-08T12:24:36;4.22;;;3.10;;
22005;SDS011;11167;46.988;15.470;2023-04-08T12:26:37;3.40;;;3.00;;
22005;SDS011;11167;46.988;15.470;2023-04-08T12:28:38;3.30;;;3.00;;
22005;SDS011;11167;46.988;15.470;2023-04-08T12:30:39;3.40;;;3.10;;
22005;SDS011;11167;46.988;15.470;2023-04-08T12:32:40;3.25;;;2.90;;
22005;SDS011;11167;46.988;15.470;2023-04-08T12:34:44;2.98;;;2.67;;